Time;durP1;ratioP1;P1;durP2;ratioP2;P2;SDS_P1;SDS_P2;PMS_P1;PMS_P2;Temp;Humidity;BMP_temperature;BMP_pressure;BME280_temperature;BME280_humidity;BME280_pressure;Samples;Min_cycle;Max_cycle;Signal;HPM_P1;HPM_P2
2021/05/09 00:00:50;;;;;;;2.88;2.42;;;8.20;99.90;;;;;;5078066;28;20066;-76
2021/05/09 00:03:16;;;;;;;3.28;2.47;;;8.20;99.90;;;;;;5072707;28;20066;-75
2021/05/09 00:05:42;;;;;;;3.70;2.35;;;8.20;99.90;;;;;;5068308;28;20036;-76
2021/05/09 00:08:07;;;;;;;3.13;1.98;;;8.20;99.90;;;;;;5073488;28;20036;-75
2021/05/09 00:10:33;;;;;;;2.92;2.00;;;8.10;99.90;;;;;;5068130;28;20082;-76
2021/05/09 00:12:59;;;;;;;3.35;2.08;;;8.20;99.90;;;;;;5070975;28;20090;-75
2021/05/09 00:15:26;;;;;;;2.53;2.22;;;8.10;99.90;;;;;;5070108;28;20464;-75
2021/05/09 00:17:51;;;;;;;2.92;2.00;;;8.10;99.90;;;;;;5085085;28;20091;-76
2021/05/09 00:20:19;;;;;;;3.80;2.00;;;8.00;99.90;;;;;;5039389;28;20121;-75
2021/05/09 00:22:45;;;;;;;2.45;1.90;;;8.00;99.90;;;;;;5076946;28;20123;-75
2021/05/09 00:25:11;;;;;;;2.88;2.00;;;8.00;99.90;;;;;;5076389;28;20028;-75
2021/05/09 00:27:37;;;;;;;4.55;2.15;;;8.10;99.90;;;;;;5071386;28;20547;-75
2021/05/09 00:30:04;;;;;;;4.15;2.47;;;8.10;99.90;;;;;;5084981;28;20040;-75
2021/05/09 00:32:30;;;;;;;2.85;2.13;;;8.10;99.90;;;;;;5076781;28;20506;-76
2021/05/09 00:34:55;;;;;;;2.85;2.45;;;8.10;99.90;;;;;;5072046;28;20028;-75
2021/05/09 00:37:21;;;;;;;3.28;1.92;;;8.10;99.90;;;;;;5076547;28;20020;-75
2021/05/09 00:39:47;;;;;;;3.28;2.30;;;8.10;99.90;;;;;;5081971;28;20024;-75
2021/05/09 00:42:12;;;;;;;3.47;2.28;;;8.10;99.90;;;;;;5067994;28;20110;-75
2021/05/09 00:44:38;;;;;;;2.08;1.77;;;8.10;99.90;;;;;;5073017;28;20059;-75
2021/05/09 00:47:09;;;;;;;3.35;2.10;;;8.10;99.90;;;;;;5054828;28;20032;-75
2021/05/09 00:49:40;;;;;;;3.10;1.92;;;8.00;99.90;;;;;;5080706;28;20431;-75
2021/05/09 00:52:09;;;;;;;3.58;2.40;;;7.90;99.90;;;;;;5065544;28;20029;-75
2021/05/09 00:54:39;;;;;;;4.30;2.45;;;7.80;99.90;;;;;;5067961;28;20032;-75
2021/05/09 00:57:06;;;;;;;2.92;1.95;;;7.80;99.90;;;;;;5063479;28;20110;-75
2021/05/09 00:59:34;;;;;;;2.20;2.00;;;7.70;99.90;;;;;;5075518;28;20070;-75
2021/05/09 01:02:00;;;;;;;2.78;2.10;;;7.60;99.90;;;;;;5053530;28;20040;-75
2021/05/09 01:04:27;;;;;;;3.22;2.35;;;7.50;99.90;;;;;;5074592;28;20028;-75
2021/05/09 01:06:53;;;;;;;2.85;2.00;;;7.40;99.90;;;;;;5081737;28;20082;-75
2021/05/09 01:09:19;;;;;;;3.65;2.40;;;7.30;99.90;;;;;;5053867;28;20649;-75
2021/05/09 01:11:45;;;;;;;3.13;2.20;;;7.20;99.90;;;;;;5056064;28;20030;-75
2021/05/09 01:14:11;;;;;;;2.28;2.08;;;7.10;99.90;;;;;;5079682;28;20028;-75
2021/05/09 01:16:37;;;;;;;3.05;2.50;;;7.10;99.90;;;;;;5084689;28;20029;-75
2021/05/09 01:19:04;;;;;;;4.65;2.60;;;7.00;99.90;;;;;;5077119;28;20600;-75
2021/05/09 01:21:29;;;;;;;3.70;2.13;;;7.00;99.90;;;;;;5061242;28;20029;-75
2021/05/09 01:23:55;;;;;;;3.58;2.58;;;6.90;99.90;;;;;;5079215;28;20029;-75
2021/05/09 01:26:21;;;;;;;2.92;2.47;;;6.80;99.90;;;;;;5077842;28;20024;-75
2021/05/09 01:28:47;;;;;;;4.22;2.38;;;6.80;99.90;;;;;;5079793;28;20116;-75
2021/05/09 01:31:13;;;;;;;3.35;2.10;;;6.80;99.90;;;;;;5079216;28;20115;-75
2021/05/09 01:33:39;;;;;;;5.47;2.35;;;6.80;99.90;;;;;;5077714;28;20025;-75
2021/05/09 01:36:05;;;;;;;5.15;2.83;;;6.80;99.90;;;;;;5078786;28;20070;-75
2021/05/09 01:38:31;;;;;;;2.92;2.17;;;6.80;99.90;;;;;;5076718;28;20033;-75
2021/05/09 01:40:57;;;;;;;3.65;2.75;;;6.80;99.90;;;;;;5072655;28;20468;-75
2021/05/09 01:43:22;;;;;;;3.30;2.67;;;6.80;99.90;;;;;;5051724;28;20029;-76
2021/05/09 01:45:49;;;;;;;3.22;2.40;;;6.70;99.90;;;;;;5041796;28;20036;-75
2021/05/09 01:48:14;;;;;;;3.22;2.35;;;6.70;99.90;;;;;;5087316;28;20085;-75
2021/05/09 01:50:40;;;;;;;2.60;2.30;;;6.70;99.90;;;;;;5078069;28;20484;-75
2021/05/09 01:53:06;;;;;;;3.42;2.47;;;6.70;99.90;;;;;;5080755;28;20493;-75
2021/05/09 01:55:33;;;;;;;3.85;2.20;;;6.70;99.90;;;;;;5073886;28;20055;-75
2021/05/09 01:58:12;;;;;;;3.90;2.40;;;6.70;99.90;;;;;;5075823;28;20028;-75
2021/05/09 02:00:56;;;;;;;4.53;2.55;;;6.70;99.90;;;;;;5080676;28;20047;-75
2021/05/09 02:03:32;;;;;;;3.65;2.67;;;6.70;99.90;;;;;;5076750;28;20052;-75
2021/05/09 02:06:00;;;;;;;2.97;2.35;;;6.80;99.90;;;;;;5073749;28;20042;-75
2021/05/09 02:08:26;;;;;;;4.38;2.63;;;6.90;99.90;;;;;;5079654;28;20450;-75
2021/05/09 02:10:58;;;;;;;3.00;2.25;;;7.00;99.90;;;;;;5069729;28;20032;-75
2021/05/09 02:13:26;;;;;;;4.15;2.58;;;7.10;99.90;;;;;;5064452;28;20044;-75
2021/05/09 02:16:01;;;;;;;2.50;2.17;;;7.20;99.90;;;;;;5070120;28;20119;-75
2021/05/09 02:18:28;;;;;;;3.00;2.45;;;7.30;99.90;;;;;;5074039;28;20143;-74
2021/05/09 02:20:53;;;;;;;4.78;2.47;;;7.30;99.90;;;;;;5040927;28;20495;-75
2021/05/09 02:23:20;;;;;;;3.47;2.40;;;7.40;99.90;;;;;;5085883;28;20055;-75
2021/05/09 02:25:46;;;;;;;4.65;2.60;;;7.50;99.90;;;;;;5084423;28;20035;-75
2021/05/09 02:28:13;;;;;;;4.10;2.28;;;7.60;99.90;;;;;;5078761;28;20036;-76
2021/05/09 02:30:39;;;;;;;3.30;2.50;;;7.60;99.90;;;;;;5082432;28;20210;-76
2021/05/09 02:33:13;;;;;;;4.85;2.47;;;7.70;99.90;;;;;;5082459;28;20097;-75
2021/05/09 02:35:42;;;;;;;3.08;2.58;;;7.80;99.90;;;;;;5070819;28;20056;-76
2021/05/09 02:38:08;;;;;;;3.55;2.13;;;7.80;99.90;;;;;;5085152;28;20126;-76
2021/05/09 02:40:34;;;;;;;4.90;2.45;;;7.80;99.90;;;;;;5061608;28;20607;-75
2021/05/09 02:43:00;;;;;;;5.22;2.40;;;7.90;99.90;;;;;;5074015;28;20373;-76
2021/05/09 02:45:26;;;;;;;5.30;2.17;;;7.90;99.90;;;;;;5070327;28;20032;-76
2021/05/09 02:47:51;;;;;;;3.50;2.78;;;7.90;99.90;;;;;;5084743;28;20028;-76
2021/05/09 02:50:20;;;;;;;3.17;2.17;;;7.90;99.90;;;;;;5083119;28;20033;-77
2021/05/09 02:52:46;;;;;;;3.78;2.40;;;7.80;99.90;;;;;;5078438;28;20036;-76
2021/05/09 02:55:13;;;;;;;3.38;2.33;;;7.80;99.90;;;;;;5077297;28;20404;-77
2021/05/09 02:57:41;;;;;;;5.63;2.65;;;7.80;99.90;;;;;;5057159;28;20029;-76
2021/05/09 03:00:07;;;;;;;2.53;2.30;;;7.80;99.90;;;;;;5081587;28;20028;-77
2021/05/09 03:02:36;;;;;;;4.38;2.50;;;7.90;99.90;;;;;;5080521;28;20123;-75
2021/05/09 03:05:03;;;;;;;2.90;2.38;;;7.90;99.90;;;;;;5072612;28;20029;-76
2021/05/09 03:07:29;;;;;;;2.47;2.20;;;7.80;99.90;;;;;;5084865;28;20511;-76
2021/05/09 03:09:56;;;;;;;3.60;2.30;;;7.80;99.90;;;;;;5070691;28;20504;-74
2021/05/09 03:12:22;;;;;;;2.80;2.10;;;7.80;99.90;;;;;;5081727;28;20039;-76
2021/05/09 03:14:47;;;;;;;3.10;2.75;;;7.90;99.90;;;;;;5083752;28;20036;-76
2021/05/09 03:17:13;;;;;;;2.42;2.22;;;7.80;99.90;;;;;;5086032;28;20117;-76
2021/05/09 03:19:39;;;;;;;3.47;2.65;;;7.80;99.90;;;;;;5067871;28;20151;-76
2021/05/09 03:22:04;;;;;;;3.35;2.28;;;7.70;99.90;;;;;;5077718;28;20678;-76
2021/05/09 03:24:30;;;;;;;5.35;2.20;;;7.70;99.90;;;;;;5077541;23;20041;-80
2021/05/09 03:26:56;;;;;;;3.95;2.83;;;7.70;99.90;;;;;;5067251;28;20132;-80
2021/05/09 03:29:21;;;;;;;2.20;2.00;;;7.70;99.90;;;;;;5041959;28;20636;-80
2021/05/09 03:31:47;;;;;;;3.25;2.30;;;7.60;99.90;;;;;;5058686;28;20036;-81
2021/05/09 03:34:13;;;;;;;4.25;2.15;;;7.60;99.90;;;;;;5074255;28;20555;-80
2021/05/09 03:36:38;;;;;;;5.03;2.50;;;7.60;99.90;;;;;;5070745;28;20039;-80
2021/05/09 03:39:04;;;;;;;3.92;2.42;;;7.60;99.90;;;;;;5085975;28;20102;-79
2021/05/09 03:41:30;;;;;;;3.50;2.40;;;7.60;99.90;;;;;;5071181;28;20038;-80
2021/05/09 03:43:56;;;;;;;5.65;2.20;;;7.70;99.90;;;;;;5063921;28;20024;-80
2021/05/09 03:46:22;;;;;;;4.03;2.63;;;7.60;99.90;;;;;;5065006;28;20032;-79
2021/05/09 03:48:47;;;;;;;4.47;2.42;;;7.50;99.90;;;;;;5060832;28;20036;-80
2021/05/09 03:51:13;;;;;;;4.18;2.33;;;7.50;99.90;;;;;;5060805;28;20111;-80
2021/05/09 03:53:39;;;;;;;3.47;2.53;;;7.50;99.90;;;;;;5051637;28;20024;-80
2021/05/09 03:56:04;;;;;;;2.58;2.03;;;7.40;99.90;;;;;;5067809;28;20671;-80
2021/05/09 03:58:30;;;;;;;3.70;2.35;;;7.40;99.90;;;;;;5071677;28;20578;-79
2021/05/09 04:00:56;;;;;;;3.45;2.00;;;7.40;99.90;;;;;;5065758;28;20024;-80
2021/05/09 04:03:28;;;;;;;3.35;2.25;;;7.30;99.90;;;;;;5037315;28;20514;-81
2021/05/09 04:05:54;;;;;;;2.25;1.90;;;7.20;99.90;;;;;;5079566;28;20082;-81
2021/05/09 04:08:22;;;;;;;2.55;2.10;;;7.20;99.90;;;;;;5067994;28;20153;-80
2021/05/09 04:10:49;;;;;;;2.72;2.38;;;7.20;99.90;;;;;;5073043;28;20052;-80
2021/05/09 04:13:15;;;;;;;3.08;2.60;;;7.20;99.90;;;;;;5084766;28;20488;-80
2021/05/09 04:15:41;;;;;;;5.00;2.40;;;7.20;99.90;;;;;;5034929;28;20033;-79
2021/05/09 04:18:07;;;;;;;3.22;2.28;;;7.20;99.90;;;;;;5075334;28;20089;-80
2021/05/09 04:20:33;;;;;;;3.63;2.25;;;7.20;99.90;;;;;;5053076;28;20086;-80
2021/05/09 04:23:15;;;;;;;3.25;2.40;;;7.20;99.90;;;;;;5060073;28;20029;-80
2021/05/09 04:25:50;;;;;;;3.83;2.30;;;7.20;99.90;;;;;;5063891;28;20055;-80
2021/05/09 04:28:17;;;;;;;2.73;2.10;;;7.20;99.90;;;;;;5048662;28;20463;-80
2021/05/09 04:30:43;;;;;;;3.85;2.50;;;7.30;99.90;;;;;;5066858;28;20029;-81
2021/05/09 04:33:09;;;;;;;4.20;2.30;;;7.30;99.90;;;;;;5049418;28;20035;-80
2021/05/09 04:35:36;;;;;;;2.50;2.05;;;7.30;99.90;;;;;;5088189;28;20043;-80
2021/05/09 04:38:04;;;;;;;2.42;2.03;;;7.30;99.90;;;;;;5074536;28;20021;-80
2021/05/09 04:40:30;;;;;;;4.30;2.72;;;7.30;99.90;;;;;;5069943;28;20097;-80
2021/05/09 04:43:11;;;;;;;4.35;2.47;;;7.30;99.90;;;;;;5073817;28;20104;-80
2021/05/09 04:45:37;;;;;;;4.28;2.42;;;7.30;99.90;;;;;;5084830;28;20024;-80
2021/05/09 04:48:04;;;;;;;4.18;2.42;;;7.40;99.90;;;;;;5083566;28;20053;-80
2021/05/09 04:50:31;;;;;;;14.50;6.25;;;7.50;99.90;;;;;;5085384;28;20119;-80
2021/05/09 04:52:57;;;;;;;2.83;2.50;;;7.50;99.90;;;;;;5082964;28;20324;-81
2021/05/09 04:55:23;;;;;;;3.25;2.22;;;7.60;99.90;;;;;;5065348;28;20063;-80
2021/05/09 04:57:48;;;;;;;4.38;2.65;;;7.80;99.90;;;;;;5082776;28;20025;-80
2021/05/09 05:00:15;;;;;;;5.50;3.60;;;7.90;99.90;;;;;;5053560;28;20039;-79
2021/05/09 05:02:45;;;;;;;3.67;2.63;;;8.10;99.90;;;;;;5038816;28;20116;-80
2021/05/09 05:05:12;;;;;;;3.80;2.42;;;8.30;99.90;;;;;;5045980;28;20447;-80
2021/05/09 05:07:38;;;;;;;4.28;2.55;;;8.40;99.90;;;;;;5044900;28;20029;-80
2021/05/09 05:10:05;;;;;;;5.53;2.83;;;8.60;99.90;;;;;;5060627;28;20082;-79
2021/05/09 05:12:31;;;;;;;3.60;2.55;;;8.70;99.90;;;;;;5063240;28;20036;-80
2021/05/09 05:14:56;;;;;;;4.13;2.80;;;8.80;99.90;;;;;;5070447;28;20081;-81
2021/05/09 05:17:22;;;;;;;3.03;2.10;;;8.90;99.90;;;;;;5091980;28;20036;-80
2021/05/09 05:19:48;;;;;;;4.30;2.55;;;9.10;99.90;;;;;;5071207;28;20529;-80
2021/05/09 05:22:14;;;;;;;3.97;2.30;;;9.20;99.90;;;;;;5075669;28;20028;-80
2021/05/09 05:24:40;;;;;;;3.90;2.40;;;9.40;99.90;;;;;;5069929;28;20063;-80
2021/05/09 05:27:05;;;;;;;3.28;2.28;;;9.50;99.90;;;;;;5057774;28;20036;-80
2021/05/09 05:29:31;;;;;;;5.43;2.45;;;9.80;99.90;;;;;;5067329;28;20113;-80
2021/05/09 05:31:57;;;;;;;2.05;1.83;;;10.20;99.90;;;;;;5066688;28;20033;-81
2021/05/09 05:34:22;;;;;;;4.78;2.22;;;10.50;99.90;;;;;;5038466;28;20045;-81
2021/05/09 05:36:49;;;;;;;4.03;2.15;;;10.80;99.90;;;;;;5071027;28;20111;-80
2021/05/09 05:39:14;;;;;;;4.68;2.63;;;11.10;99.90;;;;;;5066924;28;20055;-80
2021/05/09 05:41:40;;;;;;;6.10;3.75;;;11.40;99.90;;;;;;5075026;28;20115;-80
2021/05/09 05:44:07;;;;;;;3.83;2.60;;;11.70;99.90;;;;;;5089064;28;20035;-80
2021/05/09 05:46:33;;;;;;;3.45;2.47;;;12.00;99.90;;;;;;5087050;28;20520;-81
2021/05/09 05:48:59;;;;;;;2.92;2.20;;;12.20;99.90;;;;;;5078859;28;20522;-80
2021/05/09 05:51:25;;;;;;;2.85;2.00;;;12.50;99.90;;;;;;5066373;28;20032;-81
2021/05/09 05:53:56;;;;;;;2.17;1.60;;;12.70;99.90;;;;;;5062243;28;20511;-81
2021/05/09 05:56:22;;;;;;;3.13;1.90;;;12.90;99.90;;;;;;5086399;28;20036;-80
2021/05/09 05:58:48;;;;;;;3.40;2.38;;;13.10;99.90;;;;;;5045254;28;20024;-80
2021/05/09 06:01:14;;;;;;;2.90;2.10;;;13.20;99.90;;;;;;5061113;28;20029;-80
2021/05/09 06:03:40;;;;;;;2.58;1.85;;;13.40;99.90;;;;;;5072308;28;20028;-80
2021/05/09 06:06:05;;;;;;;2.70;1.75;;;13.70;99.70;;;;;;5074017;28;20043;-81
2021/05/09 06:08:31;;;;;;;2.85;1.90;;;13.90;98.40;;;;;;5074103;28;20024;-80
2021/05/09 06:10:57;;;;;;;2.45;2.22;;;14.20;97.60;;;;;;5087343;28;20508;-80
2021/05/09 06:13:23;;;;;;;3.67;1.65;;;14.20;95.90;;;;;;5055236;28;20041;-80
2021/05/09 06:15:49;;;;;;;3.67;2.13;;;14.40;96.10;;;;;;5091464;28;20028;-81
2021/05/09 06:18:15;;;;;;;3.85;2.15;;;14.60;94.40;;;;;;5055720;28;20051;-80
2021/05/09 06:20:41;;;;;;;2.78;1.85;;;14.80;94.30;;;;;;5085029;28;20020;-81
2021/05/09 06:23:08;;;;;;;2.17;1.95;;;14.90;92.90;;;;;;5074267;28;20799;-81
2021/05/09 06:25:34;;;;;;;3.03;1.90;;;15.10;92.50;;;;;;5053717;28;20072;-81
2021/05/09 06:28:00;;;;;;;2.78;1.83;;;15.10;92.40;;;;;;5033833;28;20099;-80
2021/05/09 06:30:26;;;;;;;3.80;2.33;;;15.20;91.40;;;;;;5036049;28;20091;-79
2021/05/09 06:32:52;;;;;;;2.70;2.30;;;15.40;93.80;;;;;;5063672;28;20029;-81
2021/05/09 06:35:18;;;;;;;2.55;1.90;;;15.60;91.50;;;;;;5055339;28;20024;-81
2021/05/09 06:37:44;;;;;;;2.70;2.15;;;15.80;89.80;;;;;;5055610;28;20035;-81
2021/05/09 06:40:10;;;;;;;4.15;2.00;;;16.20;89.00;;;;;;5076285;28;20032;-80
2021/05/09 06:42:36;;;;;;;2.85;2.00;;;16.50;84.60;;;;;;5057079;28;20482;-81
2021/05/09 06:45:11;;;;;;;3.90;2.42;;;16.70;83.90;;;;;;5070709;28;20052;-81
2021/05/09 06:47:37;;;;;;;2.17;1.98;;;16.80;79.30;;;;;;5046429;28;20124;-81
2021/05/09 06:50:04;;;;;;;4.20;3.22;;;16.90;81.10;;;;;;5060186;28;20450;-81
2021/05/09 06:52:30;;;;;;;3.45;2.25;;;17.10;79.80;;;;;;5059642;28;20032;-81
2021/05/09 06:54:56;;;;;;;3.50;2.88;;;17.00;75.80;;;;;;5049233;28;20551;-81
2021/05/09 06:57:21;;;;;;;2.42;1.73;;;16.80;75.70;;;;;;5074519;28;20028;-81
2021/05/09 06:59:47;;;;;;;2.47;1.50;;;16.90;77.60;;;;;;5088763;28;20028;-81
2021/05/09 07:02:13;;;;;;;3.55;2.22;;;17.00;77.00;;;;;;5046489;28;20028;-82
2021/05/09 07:04:38;;;;;;;2.30;2.10;;;17.30;79.40;;;;;;5052327;28;20029;-81
2021/05/09 07:07:04;;;;;;;6.13;2.35;;;17.80;78.90;;;;;;5062031;28;20106;-81
2021/05/09 07:09:30;;;;;;;2.58;2.20;;;18.20;77.00;;;;;;5054478;28;20032;-81
2021/05/09 07:11:56;;;;;;;1.88;1.67;;;18.60;76.90;;;;;;5071125;28;20062;-81
2021/05/09 07:14:21;;;;;;;2.47;1.85;;;18.70;70.00;;;;;;5053144;28;20044;-81
2021/05/09 07:16:47;;;;;;;3.65;2.08;;;18.90;70.50;;;;;;5083481;28;20052;-81
2021/05/09 07:19:14;;;;;;;2.45;1.98;;;18.80;70.10;;;;;;5079141;28;20373;-81
2021/05/09 07:21:41;;;;;;;3.83;2.03;;;19.20;71.20;;;;;;5062324;28;20032;-83
2021/05/09 07:24:08;;;;;;;2.13;1.90;;;19.30;67.70;;;;;;5047863;28;20036;-80
2021/05/09 07:26:34;;;;;;;2.95;1.95;;;19.30;66.30;;;;;;5039072;28;20756;-82
2021/05/09 07:29:00;;;;;;;2.20;2.00;;;19.50;66.80;;;;;;5068879;28;20112;-82
2021/05/09 07:31:25;;;;;;;2.33;2.00;;;19.70;67.50;;;;;;5053000;28;20195;-82
2021/05/09 07:33:51;;;;;;;2.50;1.67;;;19.60;64.90;;;;;;5057744;28;20028;-82
2021/05/09 07:36:17;;;;;;;4.55;1.73;;;19.40;64.40;;;;;;5090155;28;20101;-82
2021/05/09 07:38:42;;;;;;;2.95;1.70;;;19.10;65.20;;;;;;5088876;28;20038;-81
2021/05/09 07:41:08;;;;;;;2.97;1.98;;;19.20;66.60;;;;;;5074850;28;20534;-83
2021/05/09 07:43:34;;;;;;;2.08;1.88;;;19.40;66.70;;;;;;5044862;28;20063;-82
2021/05/09 07:46:00;;;;;;;2.92;1.40;;;19.50;67.70;;;;;;5068316;28;20381;-82
2021/05/09 07:48:26;;;;;;;2.35;1.90;;;19.80;65.90;;;;;;5068838;28;20036;-82
2021/05/09 07:50:52;;;;;;;6.18;2.60;;;19.90;63.10;;;;;;5048890;28;20028;-81
2021/05/09 07:53:18;;;;;;;2.97;2.17;;;19.80;65.20;;;;;;5032389;28;20048;-82
2021/05/09 07:55:44;;;;;;;2.22;1.90;;;19.80;66.20;;;;;;5048420;28;20111;-83
2021/05/09 07:58:14;;;;;;;3.05;1.90;;;19.80;67.20;;;;;;5048632;28;20029;-81
2021/05/09 08:00:40;;;;;;;3.22;1.75;;;19.70;67.00;;;;;;5034148;28;20075;-82
2021/05/09 08:03:06;;;;;;;2.72;1.80;;;19.60;66.80;;;;;;5044264;28;20452;-78
2021/05/09 08:05:31;;;;;;;1.92;1.58;;;19.50;67.50;;;;;;5047270;28;20037;-81
2021/05/09 08:07:57;;;;;;;3.83;1.58;;;19.60;67.80;;;;;;5044173;28;20037;-81
2021/05/09 08:10:26;;;;;;;2.47;1.75;;;19.60;67.40;;;;;;5068099;28;20063;-80
2021/05/09 08:12:53;;;;;;;2.47;1.35;;;19.70;67.50;;;;;;5053569;28;20116;-81
2021/05/09 08:15:21;;;;;;;1.63;1.50;;;19.70;69.40;;;;;;5047275;28;20083;-81
2021/05/09 08:17:47;;;;;;;1.75;1.65;;;19.70;69.80;;;;;;5057360;28;20032;-82
2021/05/09 08:20:13;;;;;;;2.85;2.03;;;19.80;68.10;;;;;;5036394;28;20480;-81
2021/05/09 08:22:39;;;;;;;1.92;1.40;;;19.70;67.30;;;;;;5039694;28;20472;-80
2021/05/09 08:25:07;;;;;;;1.60;1.50;;;19.80;67.90;;;;;;5060080;28;20059;-79
2021/05/09 08:27:34;;;;;;;1.73;1.35;;;20.00;68.50;;;;;;5070061;28;20028;-80
2021/05/09 08:30:01;;;;;;;2.20;1.40;;;20.30;65.80;;;;;;5046249;28;20043;-78
2021/05/09 08:32:27;;;;;;;1.42;1.30;;;20.40;64.00;;;;;;5094898;28;20392;-79
2021/05/09 08:34:54;;;;;;;5.20;1.45;;;20.30;65.70;;;;;;5052415;28;20028;-78
2021/05/09 08:37:20;;;;;;;1.33;1.23;;;20.10;67.90;;;;;;5072909;28;20071;-79
2021/05/09 08:39:45;;;;;;;2.97;1.40;;;19.90;65.70;;;;;;5072838;28;20492;-79
2021/05/09 08:42:16;;;;;;;1.13;1.02;;;19.90;67.10;;;;;;5071996;28;20033;-80
2021/05/09 08:44:45;;;;;;;1.98;1.30;;;19.80;67.70;;;;;;5070572;28;20029;-79
2021/05/09 08:47:12;;;;;;;2.35;1.30;;;19.80;71.70;;;;;;5067830;28;20078;-78
2021/05/09 08:49:41;;;;;;;1.30;1.20;;;19.90;67.10;;;;;;5072506;28;20036;-79
2021/05/09 08:52:11;;;;;;;2.35;1.05;;;19.90;68.00;;;;;;5053282;28;20033;-79
2021/05/09 08:54:37;;;;;;;2.25;1.55;;;20.00;68.40;;;;;;5068593;28;20036;-78
2021/05/09 08:57:04;;;;;;;1.48;1.20;;;20.20;71.40;;;;;;5072319;28;20484;-78
2021/05/09 08:59:30;;;;;;;1.30;1.13;;;20.30;71.50;;;;;;5052937;28;20044;-78
2021/05/09 09:01:58;;;;;;;1.13;1.02;;;20.40;67.20;;;;;;5068799;28;20112;-78
2021/05/09 09:04:24;;;;;;;1.35;1.02;;;20.50;68.40;;;;;;5075507;28;20035;-78
2021/05/09 09:06:53;;;;;;;1.40;1.20;;;20.60;70.20;;;;;;5052108;28;20025;-77
2021/05/09 09:09:19;;;;;;;1.55;1.13;;;20.70;68.50;;;;;;5073895;28;20055;-78
2021/05/09 09:11:50;;;;;;;1.00;0.90;;;20.80;66.00;;;;;;5067638;28;20105;-78
2021/05/09 09:14:16;;;;;;;1.70;1.17;;;20.80;64.50;;;;;;5074757;28;20024;-78
2021/05/09 09:16:41;;;;;;;1.63;1.17;;;20.80;67.60;;;;;;5067175;28;20345;-78
2021/05/09 09:19:13;;;;;;;2.15;1.20;;;20.80;66.90;;;;;;5068973;28;20032;-78
2021/05/09 09:21:39;;;;;;;2.42;1.15;;;20.90;68.70;;;;;;5073198;28;20028;-79
2021/05/09 09:24:12;;;;;;;1.48;1.08;;;20.90;71.50;;;;;;5066032;28;20093;-79
2021/05/09 09:26:39;;;;;;;1.67;1.00;;;21.00;66.70;;;;;;5067698;28;20029;-80
2021/05/09 09:29:33;;;;;;;2.67;1.02;;;21.00;65.60;;;;;;5068973;28;20074;-80
2021/05/09 09:32:06;;;;;;;2.33;1.33;;;21.00;69.70;;;;;;5059113;28;20037;-79
2021/05/09 09:34:43;;;;;;;1.13;1.00;;;21.20;70.20;;;;;;5064233;28;20029;-79
2021/05/09 09:37:10;;;;;;;2.33;1.02;;;21.30;64.60;;;;;;5065770;28;20053;-80
2021/05/09 09:39:47;;;;;;;1.50;1.27;;;21.30;70.00;;;;;;5066810;28;20782;-79
2021/05/09 09:42:14;;;;;;;1.23;1.13;;;21.40;66.20;;;;;;5066791;28;20032;-79
2021/05/09 09:44:39;;;;;;;1.40;1.27;;;21.50;67.40;;;;;;5065754;28;20036;-80
2021/05/09 09:47:05;;;;;;;1.42;0.80;;;21.70;64.20;;;;;;5083641;28;20036;-78
2021/05/09 09:49:35;;;;;;;1.58;1.20;;;21.80;66.20;;;;;;5069377;28;20470;-79
2021/05/09 09:52:07;;;;;;;1.38;1.02;;;21.80;65.00;;;;;;5065377;28;20086;-79
2021/05/09 09:54:44;;;;;;;1.55;0.90;;;22.00;69.50;;;;;;5067063;28;20039;-80
2021/05/09 09:57:25;;;;;;;0.88;0.88;;;22.10;71.00;;;;;;5058693;28;20086;-80
2021/05/09 10:00:13;;;;;;;1.02;0.95;;;22.30;60.30;;;;;;5072435;28;20021;-80
2021/05/09 10:02:43;;;;;;;1.50;1.10;;;22.40;67.10;;;;;;5043621;28;20029;-80
2021/05/09 10:05:10;;;;;;;2.95;0.93;;;22.60;65.20;;;;;;5068425;28;20028;-80
2021/05/09 10:07:36;;;;;;;1.30;1.20;;;22.70;65.20;;;;;;5071894;28;20063;-82
2021/05/09 10:10:03;;;;;;;3.63;1.20;;;22.70;64.70;;;;;;5061796;28;20656;-81
2021/05/09 10:12:29;;;;;;;0.93;0.90;;;22.80;69.30;;;;;;5050949;28;20033;-81
2021/05/09 10:14:55;;;;;;;0.90;0.90;;;23.00;65.80;;;;;;5045258;28;20037;-81
2021/05/09 10:17:25;;;;;;;0.95;0.90;;;23.00;64.30;;;;;;5067443;28;20078;-81
2021/05/09 10:19:52;;;;;;;1.00;0.80;;;22.90;61.60;;;;;;5067155;28;20468;-81
2021/05/09 10:22:35;;;;;;;1.52;1.05;;;22.90;60.00;;;;;;5066623;28;20024;-80
2021/05/09 10:25:02;;;;;;;1.17;1.02;;;22.60;61.00;;;;;;5075362;28;20503;-80
2021/05/09 10:27:36;;;;;;;1.10;1.00;;;22.70;61.90;;;;;;5071703;28;20032;-81
2021/05/09 10:30:12;;;;;;;1.08;1.05;;;22.70;63.30;;;;;;5054294;28;20060;-81
2021/05/09 10:32:38;;;;;;;1.20;1.10;;;22.70;63.80;;;;;;5043464;28;20047;-81
2021/05/09 10:35:08;;;;;;;1.15;1.05;;;22.60;60.20;;;;;;5065939;28;20020;-81
2021/05/09 10:37:45;;;;;;;1.70;1.05;;;22.70;61.20;;;;;;5073351;28;20052;-80
2021/05/09 10:40:28;;;;;;;1.58;1.00;;;22.80;61.80;;;;;;5050286;28;20481;-80
2021/05/09 10:43:02;;;;;;;2.28;1.08;;;22.80;61.60;;;;;;5065627;28;20027;-80
2021/05/09 10:50:45;;;;;;;2.15;1.20;;;22.90;63.20;;;;;;5064385;28;20032;-79
2021/05/09 10:53:33;;;;;;;1.42;1.20;;;22.90;59.50;;;;;;5068208;28;20032;-79
2021/05/09 10:56:20;;;;;;;2.88;1.58;;;22.70;59.10;;;;;;5065584;28;20025;-81
2021/05/09 10:58:51;;;;;;;1.63;1.45;;;22.70;59.90;;;;;;5046268;28;20619;-80
2021/05/09 11:01:23;;;;;;;1.70;1.10;;;22.80;65.10;;;;;;5061147;28;20090;-79
2021/05/09 11:03:56;;;;;;;1.20;1.08;;;23.10;65.50;;;;;;5070940;28;20024;-79
2021/05/09 11:06:27;;;;;;;3.63;1.33;;;23.30;63.60;;;;;;5034001;28;20057;-79
2021/05/09 11:08:57;;;;;;;1.15;1.02;;;23.40;61.50;;;;;;5063629;28;20035;-79
2021/05/09 11:11:25;;;;;;;2.60;1.30;;;23.50;58.90;;;;;;5054625;28;20684;-80
2021/05/09 11:16:24;;;;;;;6.13;1.20;;;23.40;59.70;;;;;;5058601;28;20131;-79
2021/05/09 11:18:56;;;;;;;1.17;1.08;;;23.60;63.10;;;;;;5043503;28;20550;-79
2021/05/09 11:21:23;;;;;;;1.23;1.10;;;23.70;62.50;;;;;;5048894;28;20032;-79
2021/05/09 11:23:49;;;;;;;1.08;1.00;;;23.90;61.70;;;;;;5056712;28;20712;-80
2021/05/09 11:26:36;;;;;;;2.92;1.17;;;24.10;59.40;;;;;;5038418;28;20041;-78
2021/05/09 11:29:10;;;;;;;1.38;0.90;;;24.20;59.40;;;;;;5031932;28;20116;-78
2021/05/09 11:31:38;;;;;;;1.27;1.17;;;24.20;58.60;;;;;;5061636;28;20504;-78
2021/05/09 11:34:04;;;;;;;1.10;1.02;;;24.20;58.00;;;;;;5045357;28;20100;-79
2021/05/09 11:36:32;;;;;;;1.25;1.00;;;24.20;58.40;;;;;;5053902;28;20040;-78
2021/05/09 11:39:18;;;;;;;1.00;0.90;;;24.20;56.80;;;;;;5066759;28;20027;-79
2021/05/09 11:42:01;;;;;;;2.00;1.10;;;24.10;57.10;;;;;;5059776;28;20384;-79
2021/05/09 11:44:40;;;;;;;2.80;0.93;;;24.00;56.60;;;;;;5057680;28;20050;-79
2021/05/09 11:47:11;;;;;;;2.42;1.08;;;23.80;56.50;;;;;;5046953;28;20490;-78
2021/05/09 11:49:37;;;;;;;1.20;1.10;;;24.00;56.80;;;;;;5058663;28;20017;-79
2021/05/09 11:52:05;;;;;;;0.75;0.75;;;24.20;57.20;;;;;;5062705;28;20021;-79
2021/05/09 11:54:36;;;;;;;1.00;0.88;;;24.20;56.50;;;;;;5078610;28;20184;-79
2021/05/09 11:57:07;;;;;;;1.10;1.05;;;24.30;55.90;;;;;;5049964;28;20525;-78
2021/05/09 11:59:37;;;;;;;1.80;0.90;;;24.30;57.10;;;;;;5061797;28;20028;-79
2021/05/09 12:02:18;;;;;;;0.95;0.93;;;24.50;59.20;;;;;;5049209;28;20539;-78
2021/05/09 12:04:57;;;;;;;5.82;0.98;;;24.70;58.10;;;;;;5042519;28;20029;-78
2021/05/09 12:07:26;;;;;;;11.10;2.45;;;24.80;53.70;;;;;;5068801;28;20550;-78
2021/05/09 12:09:54;;;;;;;1.95;0.80;;;25.00;60.80;;;;;;5071855;28;20016;-79
2021/05/09 12:12:22;;;;;;;1.38;1.00;;;25.20;56.90;;;;;;5061868;28;20467;-80
2021/05/09 12:14:52;;;;;;;2.70;1.10;;;25.30;54.00;;;;;;5061614;28;20093;-78
2021/05/09 12:17:24;;;;;;;1.50;1.00;;;25.10;55.80;;;;;;5069784;28;20048;-78
2021/05/09 12:19:50;;;;;;;0.93;0.70;;;25.20;57.70;;;;;;5073350;28;20036;-78
2021/05/09 12:22:16;;;;;;;0.90;0.90;;;25.50;57.20;;;;;;5056630;28;20072;-78
2021/05/09 12:24:54;;;;;;;1.25;0.80;;;25.70;57.50;;;;;;5064468;28;20056;-80
2021/05/09 12:27:21;;;;;;;1.77;1.23;;;25.80;54.10;;;;;;5043533;28;20480;-79
2021/05/09 12:29:55;;;;;;;1.05;0.80;;;25.80;56.90;;;;;;5071419;28;20116;-79
2021/05/09 12:32:31;;;;;;;1.58;1.00;;;25.70;52.20;;;;;;5063313;28;20057;-79
2021/05/09 12:35:10;;;;;;;1.60;0.77;;;25.60;50.80;;;;;;5065506;28;20033;-79
2021/05/09 12:37:57;;;;;;;0.80;0.80;;;25.70;54.30;;;;;;5045252;28;20029;-78
2021/05/09 12:40:32;;;;;;;1.55;0.90;;;25.80;55.70;;;;;;5064917;28;20028;-79
2021/05/09 12:43:09;;;;;;;0.75;0.70;;;25.90;54.40;;;;;;5060375;28;20111;-79
2021/05/09 12:45:52;;;;;;;1.55;1.00;;;26.00;54.00;;;;;;5047828;28;20044;-79
2021/05/09 12:48:28;;;;;;;1.02;0.80;;;26.20;54.30;;;;;;5058679;28;20778;-78
2021/05/09 12:51:07;;;;;;;1.02;0.60;;;26.30;50.70;;;;;;5050983;28;20025;-79
2021/05/09 12:53:48;;;;;;;0.80;0.80;;;26.40;51.80;;;;;;5059225;28;20039;-80
2021/05/09 12:56:43;;;;;;;1.58;1.48;;;26.60;53.50;;;;;;5049514;28;20032;-81
2021/05/09 12:59:16;;;;;;;0.70;0.70;;;26.50;51.20;;;;;;5058820;28;20427;-80
2021/05/09 13:02:03;;;;;;;0.70;0.70;;;26.60;51.90;;;;;;5062281;28;20027;-81
2021/05/09 13:04:31;;;;;;;1.35;1.10;;;26.50;51.10;;;;;;5053210;28;20031;-80